首页
METAR-TAF:

METAR-TAF

机场 :

恩吉利國際機場

金夏沙, 刚果

纬度: 04-23S, 经度: 015-26E, 海拔: 309米

当前天气观测

该预报发布于1小时和7分钟前的23:00 UTC
风速4节,风向
温度 22°C
湿度 83%
气压 1015 hPa
能見度: 8000

METAR: FZAA 192300Z 18004KT 8000 NSC 22/19 Q1015 NOSIG

时间: 01:07 (00:07 UTC)

预报

该预报发布于7小时和7分钟前的17:00 UTC
预报有效从19日的 18点(UTC)到 20日的 24点(UTC)
风速6节,风向西
能見度: 7000
少量云层高于1800英尺
短暂存在
从 20日的 05点(UTC)到 20日的 10点(UTC)
能見度: 3000
多云层高于1500英尺
轻雾

TAF: FZAA 191700Z 1918/2024 26006KT 7000 FEW018 TEMPO 2005/2010 3000 BR BKN015

超过4000个机场的气象观测和天气预报(METAR&TAF报告)。

可查询的气象台以黄色和红色小点在地图上表示。

将鼠标移到小点上方,可查看气象台名称。

然后点击查看天气观测和预报。

如需切换地图:点击带黑十字的绿色按钮放大地图;点击带横线的绿色按钮缩小地图;或者点击绿色箭头查看邻近地区的地图。


METAR-TAF: